createdAt,value
2022-10-14T00:00:54.619Z,25.52
2022-10-14T00:05:04.605Z,24.98
2022-10-14T00:09:08.736Z,25.13
2022-10-14T00:13:10.451Z,22.77
2022-10-14T00:17:12.263Z,26.70
2022-10-14T00:21:14.245Z,28.05
2022-10-14T00:25:16.121Z,25.10
2022-10-14T00:29:19.038Z,24.60
2022-10-14T00:33:21.486Z,24.48
2022-10-14T00:37:23.815Z,24.45
2022-10-14T00:41:31.920Z,24.55
2022-10-14T00:45:34.786Z,27.67
2022-10-14T00:49:40.436Z,24.10
2022-10-14T00:53:43.678Z,25.38
2022-10-14T00:57:45.956Z,27.33
2022-10-14T01:01:47.936Z,28.33
2022-10-14T01:06:22.854Z,24.80
2022-10-14T01:10:43.596Z,26.27
2022-10-14T01:14:51.711Z,26.45
2022-10-14T01:19:13.336Z,26.88
2022-10-14T01:23:40.490Z,25.42
2022-10-14T01:27:48.332Z,23.30
2022-10-14T01:32:02.647Z,24.92
2022-10-14T01:36:11.042Z,25.38
2022-10-14T01:44:23.231Z,27.67
2022-10-14T01:48:31.139Z,24.98
2022-10-14T01:52:38.510Z,26.13
2022-10-14T01:56:43.177Z,26.27
2022-10-14T02:00:47.829Z,24.67
2022-10-14T02:04:49.810Z,23.88
2022-10-14T02:09:07.407Z,25.00
2022-10-14T02:13:28.329Z,23.45
2022-10-14T02:17:42.980Z,28.83
2022-10-14T02:22:00.273Z,28.73
2022-10-14T02:26:03.938Z,38.63
2022-10-14T02:30:07.657Z,38.80
2022-10-14T02:34:12.776Z,40.90
2022-10-14T02:38:15.816Z,38.53
2022-10-14T02:42:17.813Z,34.58
2022-10-14T02:46:21.630Z,27.52
2022-10-14T02:50:23.412Z,27.15
2022-10-14T02:54:26.941Z,29.42
2022-10-14T02:58:28.711Z,29.88
2022-10-14T03:02:31.891Z,29.42
2022-10-14T03:06:34.263Z,31.00
2022-10-14T03:10:36.330Z,28.08
2022-10-14T03:14:38.116Z,27.17
2022-10-14T03:18:42.157Z,28.98
2022-10-14T03:22:54.295Z,27.70
2022-10-14T03:26:57.567Z,27.30
2022-10-14T03:31:00.935Z,31.27
2022-10-14T03:35:17.765Z,27.13
2022-10-14T03:39:22.229Z,28.75
2022-10-14T03:43:26.197Z,30.50
2022-10-14T03:47:32.304Z,31.08
2022-10-14T03:51:35.574Z,35.75
2022-10-14T03:55:47.752Z,30.73
2022-10-14T03:59:49.661Z,27.90
2022-10-14T04:03:52.213Z,31.40
2022-10-14T04:07:54.131Z,29.10
2022-10-14T04:11:59.643Z,32.55
2022-10-14T04:16:20.279Z,29.98
2022-10-14T04:20:37.101Z,29.52
2022-10-14T04:24:39.383Z,32.05
2022-10-14T04:28:42.444Z,32.38
2022-10-14T04:32:52.109Z,36.08
2022-10-14T04:36:54.060Z,35.10
2022-10-14T04:41:12.476Z,33.58
2022-10-14T04:45:20.578Z,33.45
2022-10-14T04:53:48.778Z,32.95
2022-10-14T04:58:04.237Z,35.88
2022-10-14T05:02:13.006Z,34.35
2022-10-14T05:06:28.399Z,33.83
2022-10-14T05:10:31.427Z,39.53
2022-10-14T05:14:35.474Z,34.13
2022-10-14T05:18:51.451Z,37.15
2022-10-14T05:22:53.656Z,36.10
2022-10-14T05:26:55.275Z,35.15
2022-10-14T05:30:57.311Z,34.97
2022-10-14T05:34:59.345Z,36.38
2022-10-14T05:39:08.501Z,36.35
2022-10-14T05:43:11.635Z,37.60
2022-10-14T05:47:17.465Z,33.22
2022-10-14T05:51:22.508Z,38.13
2022-10-14T05:55:29.335Z,37.33
2022-10-14T05:59:34.816Z,36.22
2022-10-14T06:03:36.889Z,35.25
2022-10-14T06:07:38.833Z,37.33
2022-10-14T06:11:40.841Z,36.55
2022-10-14T06:15:42.469Z,36.05
2022-10-14T06:19:44.607Z,38.50
2022-10-14T06:23:46.388Z,42.60
2022-10-14T06:27:48.207Z,41.90
2022-10-14T06:31:49.869Z,43.17
2022-10-14T06:35:51.967Z,40.17
2022-10-14T06:39:53.645Z,43.15
2022-10-14T06:43:55.702Z,43.38
2022-10-14T06:47:57.747Z,47.13
2022-10-14T06:51:59.632Z,46.72
2022-10-14T06:56:06.156Z,43.25
2022-10-14T07:00:08.886Z,47.33
2022-10-14T07:04:11.791Z,49.22
2022-10-14T07:08:15.546Z,49.78
2022-10-14T07:12:17.673Z,45.72
2022-10-14T07:16:19.532Z,46.28
2022-10-14T07:20:21.250Z,46.22
2022-10-14T07:24:24.001Z,43.00
2022-10-14T07:28:26.049Z,50.55
2022-10-14T07:32:28.080Z,45.83
2022-10-14T07:36:30.141Z,44.28
2022-10-14T07:40:32.050Z,40.92
2022-10-14T07:44:33.747Z,40.25
2022-10-14T07:48:52.674Z,39.20
2022-10-14T07:53:01.174Z,36.92
2022-10-14T07:57:04.159Z,36.72
2022-10-14T08:01:06.244Z,34.65
2022-10-14T08:05:32.875Z,34.53
2022-10-14T08:09:30.279Z,33.70
2022-10-14T08:13:33.114Z,33.25
2022-10-14T08:17:34.743Z,32.53
2022-10-14T08:21:36.764Z,31.60
2022-10-14T08:25:40.024Z,33.17
2022-10-14T08:29:41.953Z,30.17
2022-10-14T08:33:43.604Z,29.42
2022-10-14T08:37:45.632Z,31.50
2022-10-14T08:41:53.129Z,32.17
2022-10-14T08:46:04.652Z,30.02
2022-10-14T08:50:17.428Z,31.42
2022-10-14T08:54:29.892Z,32.75
2022-10-14T08:58:34.337Z,31.25
2022-10-14T09:02:45.998Z,35.35
2022-10-14T09:06:50.271Z,30.17
2022-10-14T09:10:52.308Z,32.30
2022-10-14T09:15:18.559Z,36.17
2022-10-14T09:19:37.196Z,37.50
2022-10-14T09:23:39.061Z,35.17
2022-10-14T09:27:41.793Z,32.45
2022-10-14T09:31:43.569Z,26.95
2022-10-14T09:35:45.965Z,23.63
2022-10-14T09:39:49.177Z,25.65
2022-10-14T09:44:21.243Z,22.48
2022-10-14T09:48:49.279Z,18.77
2022-10-14T09:52:55.523Z,20.05
2022-10-14T09:57:04.584Z,18.73
2022-10-14T10:01:12.842Z,19.15
2022-10-14T10:05:27.205Z,18.58
2022-10-14T10:09:29.066Z,18.02
2022-10-14T10:13:33.464Z,19.45
2022-10-14T10:17:40.519Z,18.20
2022-10-14T10:21:42.494Z,18.42
2022-10-14T10:25:44.382Z,18.90
2022-10-14T10:29:46.099Z,17.65
2022-10-14T10:34:03.106Z,16.55
2022-10-14T10:38:30.930Z,18.42
2022-10-14T10:42:45.836Z,16.38
2022-10-14T10:47:12.264Z,14.70
2022-10-14T10:51:34.559Z,17.25
2022-10-14T10:55:53.977Z,14.85
2022-10-14T11:00:01.712Z,15.68
2022-10-14T11:04:25.865Z,16.90
2022-10-14T11:09:01.647Z,19.13
2022-10-14T11:13:35.643Z,19.48
2022-10-14T11:17:45.445Z,19.38
2022-10-14T11:22:23.573Z,18.85
2022-10-14T11:26:46.878Z,18.95
2022-10-14T11:31:12.434Z,17.70
2022-10-14T11:35:59.221Z,17.88
2022-10-14T11:40:03.833Z,16.88
2022-10-14T11:48:51.337Z,19.05
2022-10-14T11:53:18.959Z,17.85
2022-10-14T11:57:56.622Z,18.55
2022-10-14T12:02:12.183Z,21.30
2022-10-14T12:06:22.529Z,18.05
2022-10-14T12:10:30.938Z,21.40
2022-10-14T12:14:36.080Z,20.80
2022-10-14T12:18:38.121Z,19.45
2022-10-14T12:22:39.867Z,18.40
2022-10-14T12:26:56.946Z,18.70
2022-10-14T12:31:23.532Z,18.90
2022-10-14T12:35:45.508Z,18.58
2022-10-14T12:39:47.364Z,17.52
2022-10-14T12:44:00.537Z,19.00
2022-10-14T12:48:15.877Z,19.67
2022-10-14T12:52:22.213Z,20.00
2022-10-14T12:56:44.278Z,19.50
2022-10-14T13:00:55.120Z,20.73
2022-10-14T13:04:56.981Z,20.48
2022-10-14T13:09:17.195Z,21.73
2022-10-14T13:13:41.863Z,20.15
2022-10-14T13:17:47.638Z,21.58
2022-10-14T13:21:52.607Z,23.30
2022-10-14T13:26:13.664Z,23.70
2022-10-14T13:30:32.980Z,21.20
2022-10-14T13:34:51.730Z,22.02
2022-10-14T13:38:57.719Z,24.80
2022-10-14T13:43:08.335Z,27.10
2022-10-14T13:47:14.376Z,21.17
2022-10-14T13:51:31.503Z,17.98
2022-10-14T13:55:51.627Z,22.25
2022-10-14T14:04:31.988Z,20.25
2022-10-14T14:08:40.390Z,20.55
2022-10-14T14:12:44.008Z,19.65
2022-10-14T14:16:58.384Z,21.40
2022-10-14T14:21:00.252Z,20.30
2022-10-14T14:25:38.157Z,21.30
2022-10-14T14:29:48.916Z,20.95
2022-10-14T14:33:51.343Z,22.27
2022-10-14T14:37:56.137Z,19.17
2022-10-14T14:42:00.713Z,18.85
2022-10-14T14:46:02.844Z,21.00
2022-10-14T14:50:28.988Z,21.13
2022-10-14T14:54:28.937Z,23.25
2022-10-14T14:58:38.564Z,21.35
2022-10-14T15:02:49.363Z,21.15
2022-10-14T15:07:18.742Z,20.58
2022-10-14T15:11:23.876Z,20.58
2022-10-14T15:15:27.831Z,21.00
2022-10-14T15:24:24.943Z,21.38
2022-10-14T15:28:31.734Z,21.40
2022-10-14T15:32:34.934Z,21.97
2022-10-14T15:42:30.286Z,25.75
2022-10-14T15:46:52.969Z,25.48
2022-10-14T15:50:54.585Z,27.75
2022-10-14T15:54:57.772Z,28.13
2022-10-14T15:58:59.564Z,29.33
2022-10-14T16:03:03.650Z,30.83
2022-10-14T16:07:06.467Z,30.13
2022-10-14T16:11:19.762Z,28.75
2022-10-14T16:15:32.169Z,31.02
2022-10-14T16:19:34.071Z,33.40
2022-10-14T16:23:40.138Z,33.78
2022-10-14T16:27:42.399Z,35.53
2022-10-14T16:31:49.961Z,33.78
2022-10-14T16:35:54.550Z,31.52
2022-10-14T16:39:56.298Z,32.15
2022-10-14T16:43:58.245Z,32.40
2022-10-14T16:47:59.866Z,35.13
2022-10-14T16:52:01.807Z,31.17
2022-10-14T16:56:24.802Z,30.65
2022-10-14T17:00:26.680Z,33.13
2022-10-14T17:04:28.532Z,30.73
2022-10-14T17:08:33.066Z,31.55
2022-10-14T17:12:34.922Z,32.00
2022-10-14T17:16:36.966Z,30.83
2022-10-14T17:20:38.661Z,33.42
2022-10-14T17:24:40.464Z,34.45
2022-10-14T17:28:45.114Z,35.50
2022-10-14T17:32:47.223Z,36.08
2022-10-14T17:36:49.264Z,33.15
2022-10-14T17:40:51.471Z,38.47
2022-10-14T17:44:54.261Z,36.90
2022-10-14T17:48:59.112Z,34.20
2022-10-14T17:53:00.980Z,35.88
2022-10-14T17:57:02.952Z,36.25
2022-10-14T18:01:11.133Z,37.92
2022-10-14T18:05:13.754Z,38.97
2022-10-14T18:09:15.545Z,38.55
2022-10-14T18:13:17.359Z,37.80
2022-10-14T18:17:19.259Z,39.80
2022-10-14T18:21:21.499Z,39.70
2022-10-14T18:25:23.565Z,39.00
2022-10-14T18:29:25.502Z,43.92
2022-10-14T18:33:27.265Z,40.40
2022-10-14T18:37:29.073Z,41.58
2022-10-14T18:41:31.286Z,39.72
2022-10-14T18:45:34.691Z,41.53
2022-10-14T18:49:39.928Z,41.95
2022-10-14T18:53:44.942Z,40.63
2022-10-14T18:57:46.645Z,40.60
2022-10-14T19:01:52.044Z,41.88
2022-10-14T19:05:58.001Z,42.28
2022-10-14T19:09:59.904Z,43.45
2022-10-14T19:14:05.391Z,45.72
2022-10-14T19:18:07.511Z,45.22
2022-10-14T19:22:10.531Z,46.45
2022-10-14T19:26:21.281Z,44.00
2022-10-14T19:30:22.918Z,46.10
2022-10-14T19:34:27.324Z,45.78
2022-10-14T19:38:29.339Z,43.25
2022-10-14T19:42:31.175Z,47.22
2022-10-14T19:46:33.095Z,46.65
2022-10-14T19:50:35.062Z,49.63
2022-10-14T19:54:36.704Z,49.58
2022-10-14T19:58:43.787Z,54.67
2022-10-14T20:02:49.453Z,54.58
2022-10-14T20:06:51.366Z,51.65
2022-10-14T20:10:53.515Z,49.95
2022-10-14T20:14:56.002Z,52.40
2022-10-14T20:18:57.839Z,53.25
2022-10-14T20:22:59.713Z,54.35
2022-10-14T20:27:01.753Z,52.53
2022-10-14T20:31:07.032Z,50.10
2022-10-14T20:35:14.138Z,47.88
2022-10-14T20:39:16.851Z,49.88
2022-10-14T20:43:18.631Z,50.83
2022-10-14T20:47:20.999Z,48.08
2022-10-14T20:51:23.350Z,46.92
2022-10-14T20:55:25.524Z,52.58
2022-10-14T20:59:27.418Z,59.78
2022-10-14T21:03:29.777Z,59.22
2022-10-14T21:07:31.455Z,54.33
2022-10-14T21:11:33.521Z,53.95
2022-10-14T21:15:35.195Z,53.83
2022-10-14T21:19:37.169Z,54.72
2022-10-14T21:23:39.126Z,52.45
2022-10-14T21:27:40.995Z,52.13
2022-10-14T21:31:43.149Z,54.67
2022-10-14T21:35:45.187Z,51.53
2022-10-14T21:39:46.933Z,56.20
2022-10-14T21:43:48.974Z,57.95
2022-10-14T21:47:52.852Z,61.60
2022-10-14T21:51:54.756Z,57.03
2022-10-14T21:55:56.453Z,63.83
2022-10-14T21:59:58.420Z,64.30
2022-10-14T22:04:05.597Z,68.95
2022-10-14T22:08:07.457Z,69.70
2022-10-14T22:12:09.511Z,69.80
2022-10-14T22:16:13.523Z,59.85
2022-10-14T22:20:15.533Z,64.95
2022-10-14T22:24:17.662Z,65.13
2022-10-14T22:28:19.386Z,69.00
2022-10-14T22:32:21.378Z,58.60
2022-10-14T22:36:28.249Z,56.85
2022-10-14T22:40:30.148Z,65.03
2022-10-14T22:44:31.779Z,62.83
2022-10-14T22:48:35.260Z,63.83
2022-10-14T22:52:37.371Z,67.30
2022-10-14T22:56:39.520Z,62.85
2022-10-14T23:00:41.237Z,61.60
2022-10-14T23:04:43.082Z,60.47
2022-10-14T23:08:45.342Z,72.07
2022-10-14T23:12:47.564Z,78.18
2022-10-14T23:16:49.263Z,69.07
2022-10-14T23:20:51.194Z,68.47
2022-10-14T23:24:52.960Z,73.40
2022-10-14T23:28:57.666Z,64.32
2022-10-14T23:32:59.531Z,61.22
2022-10-14T23:37:01.681Z,65.55
2022-10-14T23:41:04.744Z,70.85
2022-10-14T23:45:07.278Z,70.28
2022-10-14T23:49:25.117Z,65.93
2022-10-14T23:53:28.444Z,78.50
2022-10-14T23:57:30.096Z,76.43
